sensor_id;sensor_type;location;lat;lon;timestamp;pressure;altitude;pressure_sealevel;temperature;humidity
1616;BME280;801;47.982;7.810;2023-02-10T00:00:23;100594.72;;;-0.22;100.00
1616;BME280;801;47.982;7.810;2023-02-10T00:02:50;100604.44;;;-0.32;100.00
1616;BME280;801;47.982;7.810;2023-02-10T00:05:17;100606.81;;;-0.39;100.00
1616;BME280;801;47.982;7.810;2023-02-10T00:07:44;100597.34;;;-0.22;100.00
1616;BME280;801;47.982;7.810;2023-02-10T00:10:11;100606.22;;;-0.04;100.00
1616;BME280;801;47.982;7.810;2023-02-10T00:12:37;100602.28;;;0.10;100.00
1616;BME280;801;47.982;7.810;2023-02-10T00:15:05;100609.59;;;-0.50;100.00
1616;BME280;801;47.982;7.810;2023-02-10T00:17:32;100610.44;;;-0.59;100.00
1616;BME280;801;47.982;7.810;2023-02-10T00:19:58;100608.34;;;-0.27;100.00
1616;BME280;801;47.982;7.810;2023-02-10T00:22:25;100607.25;;;-0.53;100.00
1616;BME280;801;47.982;7.810;2023-02-10T00:24:53;100608.22;;;-0.35;100.00
1616;BME280;801;47.982;7.810;2023-02-10T00:27:19;100612.06;;;0.00;100.00
1616;BME280;801;47.982;7.810;2023-02-10T00:29:49;100602.81;;;0.24;100.00
1616;BME280;801;47.982;7.810;2023-02-10T00:32:16;100590.69;;;-0.26;100.00
1616;BME280;801;47.982;7.810;2023-02-10T00:34:43;100597.31;;;-0.03;100.00
1616;BME280;801;47.982;7.810;2023-02-10T00:37:09;100595.50;;;-0.02;100.00
1616;BME280;801;47.982;7.810;2023-02-10T00:39:36;100602.00;;;0.13;100.00
1616;BME280;801;47.982;7.810;2023-02-10T00:42:04;100595.63;;;0.06;100.00
1616;BME280;801;47.982;7.810;2023-02-10T00:44:30;100589.88;;;0.20;100.00
1616;BME280;801;47.982;7.810;2023-02-10T00:46:57;100595.06;;;0.12;100.00
1616;BME280;801;47.982;7.810;2023-02-10T00:49:23;100603.28;;;0.09;100.00
1616;BME280;801;47.982;7.810;2023-02-10T00:51:49;100601.72;;;0.16;100.00
1616;BME280;801;47.982;7.810;2023-02-10T00:54:16;100600.84;;;0.26;100.00
1616;BME280;801;47.982;7.810;2023-02-10T00:56:43;100599.19;;;0.25;100.00
1616;BME280;801;47.982;7.810;2023-02-10T00:59:13;100595.31;;;0.19;100.00
1616;BME280;801;47.982;7.810;2023-02-10T01:01:40;100595.75;;;0.14;100.00
1616;BME280;801;47.982;7.810;2023-02-10T01:04:07;100588.16;;;-0.08;100.00
1616;BME280;801;47.982;7.810;2023-02-10T01:06:33;100589.84;;;-0.27;100.00
1616;BME280;801;47.982;7.810;2023-02-10T01:09:00;100585.53;;;-0.28;100.00
1616;BME280;801;47.982;7.810;2023-02-10T01:11:26;100595.69;;;-0.33;100.00
1616;BME280;801;47.982;7.810;2023-02-10T01:13:53;100592.91;;;-0.41;100.00
1616;BME280;801;47.982;7.810;2023-02-10T01:16:21;100594.03;;;-0.53;100.00
1616;BME280;801;47.982;7.810;2023-02-10T01:18:47;100585.41;;;-0.55;100.00
1616;BME280;801;47.982;7.810;2023-02-10T01:21:15;100589.59;;;-0.53;100.00
1616;BME280;801;47.982;7.810;2023-02-10T01:23:42;100587.50;;;-0.69;100.00
1616;BME280;801;47.982;7.810;2023-02-10T01:26:10;100586.53;;;-0.77;100.00
1616;BME280;801;47.982;7.810;2023-02-10T01:28:36;100591.25;;;-0.61;100.00
1616;BME280;801;47.982;7.810;2023-02-10T01:31:07;100595.56;;;-0.60;100.00
1616;BME280;801;47.982;7.810;2023-02-10T01:33:35;100599.31;;;-0.53;100.00
1616;BME280;801;47.982;7.810;2023-02-10T01:36:03;100601.13;;;-0.64;100.00
1616;BME280;801;47.982;7.810;2023-02-10T01:38:30;100593.19;;;-0.64;100.00
1616;BME280;801;47.982;7.810;2023-02-10T01:40:57;100586.38;;;-0.56;100.00
1616;BME280;801;47.982;7.810;2023-02-10T01:43:23;100591.13;;;-0.50;100.00
1616;BME280;801;47.982;7.810;2023-02-10T01:45:50;100594.84;;;-0.43;100.00
1616;BME280;801;47.982;7.810;2023-02-10T01:48:17;100594.44;;;-0.48;100.00
1616;BME280;801;47.982;7.810;2023-02-10T01:50:50;100600.41;;;-0.85;100.00
1616;BME280;801;47.982;7.810;2023-02-10T01:53:18;100600.84;;;-0.60;100.00
1616;BME280;801;47.982;7.810;2023-02-10T01:55:49;100605.84;;;-0.48;100.00
1616;BME280;801;47.982;7.810;2023-02-10T01:58:19;100598.75;;;-0.67;100.00
1616;BME280;801;47.982;7.810;2023-02-10T02:00:47;100596.69;;;-1.33;100.00
1616;BME280;801;47.982;7.810;2023-02-10T02:03:14;100593.47;;;-0.96;100.00
1616;BME280;801;47.982;7.810;2023-02-10T02:05:42;100591.25;;;-0.81;100.00
1616;BME280;801;47.982;7.810;2023-02-10T02:08:13;100592.91;;;-0.60;100.00
1616;BME280;801;47.982;7.810;2023-02-10T02:10:56;100592.91;;;-0.31;100.00
1616;BME280;801;47.982;7.810;2023-02-10T02:13:35;100602.91;;;-0.25;100.00
1616;BME280;801;47.982;7.810;2023-02-10T02:16:10;100614.59;;;-0.28;100.00
1616;BME280;801;47.982;7.810;2023-02-10T02:18:45;100614.44;;;-0.36;100.00
1616;BME280;801;47.982;7.810;2023-02-10T02:24:22;100620.16;;;-0.70;100.00
1616;BME280;801;47.982;7.810;2023-02-10T02:30:08;100621.50;;;-1.05;100.00
1616;BME280;801;47.982;7.810;2023-02-10T02:32:39;100613.41;;;-1.22;100.00
1616;BME280;801;47.982;7.810;2023-02-10T02:35:13;100619.31;;;-0.70;100.00
1616;BME280;801;47.982;7.810;2023-02-10T02:37:42;100613.78;;;-0.57;100.00
1616;BME280;801;47.982;7.810;2023-02-10T02:40:12;100623.03;;;-0.92;100.00
1616;BME280;801;47.982;7.810;2023-02-10T02:42:40;100620.22;;;-1.10;100.00
1616;BME280;801;47.982;7.810;2023-02-10T02:45:09;100621.88;;;-1.19;100.00
1616;BME280;801;47.982;7.810;2023-02-10T02:47:57;100617.50;;;-1.39;100.00
1616;BME280;801;47.982;7.810;2023-02-10T02:50:28;100615.06;;;-1.52;100.00
1616;BME280;801;47.982;7.810;2023-02-10T02:53:08;100615.34;;;-1.24;100.00
1616;BME280;801;47.982;7.810;2023-02-10T02:55:48;100612.66;;;-1.34;100.00
1616;BME280;801;47.982;7.810;2023-02-10T02:58:21;100620.94;;;-0.98;100.00
1616;BME280;801;47.982;7.810;2023-02-10T03:00:53;100618.06;;;-0.86;100.00
1616;BME280;801;47.982;7.810;2023-02-10T03:03:24;100635.00;;;-0.88;100.00
1616;BME280;801;47.982;7.810;2023-02-10T03:05:50;100632.06;;;-0.85;100.00
1616;BME280;801;47.982;7.810;2023-02-10T03:08:17;100630.13;;;-1.02;100.00
1616;BME280;801;47.982;7.810;2023-02-10T03:10:43;100634.94;;;-1.08;100.00
1616;BME280;801;47.982;7.810;2023-02-10T03:13:09;100625.59;;;-1.31;100.00
1616;BME280;801;47.982;7.810;2023-02-10T03:15:36;100626.53;;;-1.32;100.00
1616;BME280;801;47.982;7.810;2023-02-10T03:18:02;100629.88;;;-1.30;100.00
1616;BME280;801;47.982;7.810;2023-02-10T03:20:30;100631.13;;;-1.34;100.00
1616;BME280;801;47.982;7.810;2023-02-10T03:22:57;100635.75;;;-1.57;100.00
1616;BME280;801;47.982;7.810;2023-02-10T03:25:23;100633.84;;;-1.46;100.00
1616;BME280;801;47.982;7.810;2023-02-10T03:27:50;100637.25;;;-1.34;100.00
1616;BME280;801;47.982;7.810;2023-02-10T03:30:17;100644.47;;;-1.26;100.00
1616;BME280;801;47.982;7.810;2023-02-10T03:32:43;100639.09;;;-1.15;100.00
1616;BME280;801;47.982;7.810;2023-02-10T03:35:11;100638.34;;;-1.88;100.00
1616;BME280;801;47.982;7.810;2023-02-10T03:37:39;100641.84;;;-1.57;100.00
1616;BME280;801;47.982;7.810;2023-02-10T03:40:06;100644.91;;;-1.21;100.00
1616;BME280;801;47.982;7.810;2023-02-10T03:42:33;100648.34;;;-1.30;100.00
1616;BME280;801;47.982;7.810;2023-02-10T03:44:59;100647.81;;;-1.55;100.00
1616;BME280;801;47.982;7.810;2023-02-10T03:47:26;100657.19;;;-1.41;100.00
1616;BME280;801;47.982;7.810;2023-02-10T03:49:52;100655.56;;;-1.32;100.00
1616;BME280;801;47.982;7.810;2023-02-10T03:52:19;100659.09;;;-1.22;100.00
1616;BME280;801;47.982;7.810;2023-02-10T03:54:47;100662.53;;;-1.31;100.00
1616;BME280;801;47.982;7.810;2023-02-10T03:57:13;100667.28;;;-1.25;100.00
1616;BME280;801;47.982;7.810;2023-02-10T03:59:40;100672.81;;;-1.28;100.00
1616;BME280;801;47.982;7.810;2023-02-10T04:02:06;100678.59;;;-1.34;100.00
1616;BME280;801;47.982;7.810;2023-02-10T04:04:33;100672.56;;;-1.25;100.00
1616;BME280;801;47.982;7.810;2023-02-10T04:07:00;100677.75;;;-1.35;100.00
1616;BME280;801;47.982;7.810;2023-02-10T04:09:27;100676.63;;;-1.42;100.00
1616;BME280;801;47.982;7.810;2023-02-10T04:11:55;100681.09;;;-1.42;100.00
1616;BME280;801;47.982;7.810;2023-02-10T04:14:22;100676.59;;;-1.52;100.00
1616;BME280;801;47.982;7.810;2023-02-10T04:16:48;100670.41;;;-1.62;100.00
1616;BME280;801;47.982;7.810;2023-02-10T04:19:15;100667.88;;;-1.73;100.00
1616;BME280;801;47.982;7.810;2023-02-10T04:21:41;100672.31;;;-1.74;100.00
1616;BME280;801;47.982;7.810;2023-02-10T04:24:08;100673.41;;;-1.76;100.00
1616;BME280;801;47.982;7.810;2023-02-10T04:26:34;100676.03;;;-1.76;100.00
1616;BME280;801;47.982;7.810;2023-02-10T04:29:02;100674.16;;;-1.85;100.00
1616;BME280;801;47.982;7.810;2023-02-10T04:31:28;100666.63;;;-1.90;100.00
1616;BME280;801;47.982;7.810;2023-02-10T04:33:55;100679.50;;;-1.97;100.00
1616;BME280;801;47.982;7.810;2023-02-10T04:36:21;100672.03;;;-1.71;100.00
1616;BME280;801;47.982;7.810;2023-02-10T04:38:48;100674.91;;;-1.53;100.00
1616;BME280;801;47.982;7.810;2023-02-10T04:41:15;100678.91;;;-1.58;100.00
1616;BME280;801;47.982;7.810;2023-02-10T04:43:41;100679.91;;;-1.50;100.00
1616;BME280;801;47.982;7.810;2023-02-10T04:46:09;100678.69;;;-1.46;100.00
1616;BME280;801;47.982;7.810;2023-02-10T04:48:36;100683.31;;;-1.38;100.00
1616;BME280;801;47.982;7.810;2023-02-10T04:51:06;100687.06;;;-1.40;100.00
1616;BME280;801;47.982;7.810;2023-02-10T04:53:32;100683.09;;;-1.56;100.00
1616;BME280;801;47.982;7.810;2023-02-10T04:55:59;100684.50;;;-1.52;100.00
1616;BME280;801;47.982;7.810;2023-02-10T04:58:25;100674.19;;;-1.55;100.00
1616;BME280;801;47.982;7.810;2023-02-10T05:00:54;100686.75;;;-1.47;100.00
1616;BME280;801;47.982;7.810;2023-02-10T05:03:22;100687.47;;;-1.45;100.00
1616;BME280;801;47.982;7.810;2023-02-10T05:05:49;100682.69;;;-1.51;100.00
1616;BME280;801;47.982;7.810;2023-02-10T05:08:16;100677.34;;;-1.61;100.00
1616;BME280;801;47.982;7.810;2023-02-10T05:10:46;100673.88;;;-1.61;100.00
1616;BME280;801;47.982;7.810;2023-02-10T05:13:12;100677.03;;;-1.68;100.00
1616;BME280;801;47.982;7.810;2023-02-10T05:15:39;100676.84;;;-1.55;100.00
1616;BME280;801;47.982;7.810;2023-02-10T05:18:06;100677.53;;;-1.53;100.00
1616;BME280;801;47.982;7.810;2023-02-10T05:20:34;100671.13;;;-1.60;100.00
1616;BME280;801;47.982;7.810;2023-02-10T05:23:00;100680.38;;;-1.65;100.00
1616;BME280;801;47.982;7.810;2023-02-10T05:25:27;100683.50;;;-2.02;100.00
1616;BME280;801;47.982;7.810;2023-02-10T05:27:53;100678.16;;;-1.91;100.00
1616;BME280;801;47.982;7.810;2023-02-10T05:30:20;100674.47;;;-1.79;100.00
1616;BME280;801;47.982;7.810;2023-02-10T05:32:46;100667.50;;;-1.90;100.00
1616;BME280;801;47.982;7.810;2023-02-10T05:35:13;100670.69;;;-1.86;100.00
1616;BME280;801;47.982;7.810;2023-02-10T05:37:40;100679.00;;;-1.70;100.00
1616;BME280;801;47.982;7.810;2023-02-10T05:40:07;100678.81;;;-1.78;100.00
1616;BME280;801;47.982;7.810;2023-02-10T05:42:34;100684.50;;;-1.73;100.00
1616;BME280;801;47.982;7.810;2023-02-10T05:45:01;100676.94;;;-1.87;100.00
1616;BME280;801;47.982;7.810;2023-02-10T05:47:27;100677.88;;;-1.88;100.00
1616;BME280;801;47.982;7.810;2023-02-10T05:49:53;100669.91;;;-1.77;100.00
1616;BME280;801;47.982;7.810;2023-02-10T05:52:20;100668.25;;;-1.78;100.00
1616;BME280;801;47.982;7.810;2023-02-10T05:54:48;100671.53;;;-1.85;100.00
1616;BME280;801;47.982;7.810;2023-02-10T05:57:14;100676.03;;;-1.76;100.00
1616;BME280;801;47.982;7.810;2023-02-10T05:59:41;100672.63;;;-1.67;100.00
1616;BME280;801;47.982;7.810;2023-02-10T06:02:07;100680.25;;;-1.64;100.00
1616;BME280;801;47.982;7.810;2023-02-10T06:04:34;100681.94;;;-1.63;100.00
1616;BME280;801;47.982;7.810;2023-02-10T06:07:01;100676.00;;;-1.55;100.00
1616;BME280;801;47.982;7.810;2023-02-10T06:09:27;100682.78;;;-1.83;100.00
1616;BME280;801;47.982;7.810;2023-02-10T06:11:55;100686.50;;;-1.86;100.00
1616;BME280;801;47.982;7.810;2023-02-10T06:14:22;100685.09;;;-1.69;100.00
1616;BME280;801;47.982;7.810;2023-02-10T06:16:48;100694.56;;;-1.88;100.00
1616;BME280;801;47.982;7.810;2023-02-10T06:19:15;100696.22;;;-1.86;100.00
1616;BME280;801;47.982;7.810;2023-02-10T06:21:42;100692.31;;;-1.71;100.00
1616;BME280;801;47.982;7.810;2023-02-10T06:24:08;100701.28;;;-1.53;100.00
1616;BME280;801;47.982;7.810;2023-02-10T06:26:36;100700.28;;;-1.82;100.00
1616;BME280;801;47.982;7.810;2023-02-10T06:29:04;100700.66;;;-1.66;100.00
1616;BME280;801;47.982;7.810;2023-02-10T06:31:30;100707.78;;;-1.78;100.00
1616;BME280;801;47.982;7.810;2023-02-10T06:33:57;100710.31;;;-1.76;100.00
1616;BME280;801;47.982;7.810;2023-02-10T06:36:23;100705.38;;;-1.70;100.00
1616;BME280;801;47.982;7.810;2023-02-10T06:38:50;100711.50;;;-1.59;100.00
1616;BME280;801;47.982;7.810;2023-02-10T06:41:17;100707.53;;;-1.75;100.00
1616;BME280;801;47.982;7.810;2023-02-10T06:43:43;100708.16;;;-1.61;100.00
1616;BME280;801;47.982;7.810;2023-02-10T06:46:11;100709.69;;;-1.59;100.00
1616;BME280;801;47.982;7.810;2023-02-10T06:48:40;100721.09;;;-1.37;100.00
1616;BME280;801;47.982;7.810;2023-02-10T06:51:06;100727.47;;;-1.40;100.00
1616;BME280;801;47.982;7.810;2023-02-10T06:53:33;100726.41;;;-1.28;100.00
1616;BME280;801;47.982;7.810;2023-02-10T06:56:01;100719.66;;;-1.41;100.00
1616;BME280;801;47.982;7.810;2023-02-10T06:58:28;100731.13;;;-1.31;100.00
1616;BME280;801;47.982;7.810;2023-02-10T07:00:54;100726.63;;;-1.40;100.00
1616;BME280;801;47.982;7.810;2023-02-10T07:03:22;100736.28;;;-1.51;100.00
1616;BME280;801;47.982;7.810;2023-02-10T07:05:49;100740.00;;;-1.95;100.00
1616;BME280;801;47.982;7.810;2023-02-10T07:08:16;100742.31;;;-1.60;100.00
1616;BME280;801;47.982;7.810;2023-02-10T07:10:43;100749.03;;;-1.56;100.00
1616;BME280;801;47.982;7.810;2023-02-10T07:13:09;100748.63;;;-1.72;100.00
1616;BME280;801;47.982;7.810;2023-02-10T07:15:36;100755.19;;;-1.88;100.00
1616;BME280;801;47.982;7.810;2023-02-10T07:18:02;100753.88;;;-1.72;100.00
1616;BME280;801;47.982;7.810;2023-02-10T07:20:30;100750.13;;;-1.58;100.00
1616;BME280;801;47.982;7.810;2023-02-10T07:22:57;100749.66;;;-1.42;100.00
1616;BME280;801;47.982;7.810;2023-02-10T07:25:23;100751.41;;;-1.32;100.00
1616;BME280;801;47.982;7.810;2023-02-10T07:27:50;100750.28;;;-1.29;100.00
1616;BME280;801;47.982;7.810;2023-02-10T07:30:16;100755.09;;;-1.34;100.00
1616;BME280;801;47.982;7.810;2023-02-10T07:32:43;100757.81;;;-1.24;100.00
1616;BME280;801;47.982;7.810;2023-02-10T07:35:09;100767.31;;;-1.12;100.00
1616;BME280;801;47.982;7.810;2023-02-10T07:37:38;100763.84;;;-1.13;100.00
1616;BME280;801;47.982;7.810;2023-02-10T07:40:05;100760.91;;;-1.10;100.00
1616;BME280;801;47.982;7.810;2023-02-10T07:42:32;100768.31;;;-1.03;100.00
1616;BME280;801;47.982;7.810;2023-02-10T07:44:59;100770.13;;;-1.04;100.00
1616;BME280;801;47.982;7.810;2023-02-10T07:47:26;100770.97;;;-1.03;100.00
1616;BME280;801;47.982;7.810;2023-02-10T07:49:52;100775.72;;;-0.97;100.00
1616;BME280;801;47.982;7.810;2023-02-10T07:52:19;100775.00;;;-0.99;100.00
1616;BME280;801;47.982;7.810;2023-02-10T07:54:47;100772.91;;;-1.06;100.00
1616;BME280;801;47.982;7.810;2023-02-10T07:57:13;100778.44;;;-1.09;100.00
1616;BME280;801;47.982;7.810;2023-02-10T07:59:40;100778.88;;;-1.03;100.00
1616;BME280;801;47.982;7.810;2023-02-10T08:02:07;100789.94;;;-0.89;100.00
1616;BME280;801;47.982;7.810;2023-02-10T08:04:35;100791.59;;;-0.88;100.00
1616;BME280;801;47.982;7.810;2023-02-10T08:07:01;100785.22;;;-0.85;100.00
1616;BME280;801;47.982;7.810;2023-02-10T08:09:28;100791.81;;;-0.70;100.00
1616;BME280;801;47.982;7.810;2023-02-10T08:11:56;100791.09;;;-0.72;100.00
1616;BME280;801;47.982;7.810;2023-02-10T08:14:22;100792.28;;;-0.55;100.00
1616;BME280;801;47.982;7.810;2023-02-10T08:16:49;100795.75;;;-0.54;100.00
1616;BME280;801;47.982;7.810;2023-02-10T08:19:15;100791.69;;;-0.58;100.00
1616;BME280;801;47.982;7.810;2023-02-10T08:21:42;100786.72;;;-0.52;100.00
1616;BME280;801;47.982;7.810;2023-02-10T08:24:08;100796.38;;;-0.31;100.00
1616;BME280;801;47.982;7.810;2023-02-10T08:26:35;100796.56;;;-0.13;100.00
1616;BME280;801;47.982;7.810;2023-02-10T08:29:03;100798.75;;;-0.38;100.00
1616;BME280;801;47.982;7.810;2023-02-10T08:31:29;100799.28;;;-0.25;100.00
1616;BME280;801;47.982;7.810;2023-02-10T08:33:56;100800.72;;;-0.01;100.00
1616;BME280;801;47.982;7.810;2023-02-10T08:36:22;100801.44;;;0.01;100.00
1616;BME280;801;47.982;7.810;2023-02-10T08:38:49;100800.19;;;0.05;100.00
1616;BME280;801;47.982;7.810;2023-02-10T08:41:17;100793.63;;;0.29;100.00
1616;BME280;801;47.982;7.810;2023-02-10T08:43:44;100784.84;;;0.57;100.00
1616;BME280;801;47.982;7.810;2023-02-10T08:46:12;100787.91;;;0.62;100.00
1616;BME280;801;47.982;7.810;2023-02-10T08:48:39;100786.25;;;0.61;100.00
1616;BME280;801;47.982;7.810;2023-02-10T08:51:07;100791.78;;;0.78;100.00
1616;BME280;801;47.982;7.810;2023-02-10T08:53:34;100799.59;;;0.70;100.00
1616;BME280;801;47.982;7.810;2023-02-10T08:56:03;100799.75;;;0.68;100.00
1616;BME280;801;47.982;7.810;2023-02-10T08:58:30;100805.75;;;0.60;100.00
1616;BME280;801;47.982;7.810;2023-02-10T09:00:57;100792.50;;;0.70;100.00
1616;BME280;801;47.982;7.810;2023-02-10T09:03:25;100793.41;;;0.98;100.00
1616;BME280;801;47.982;7.810;2023-02-10T09:05:53;100787.13;;;0.99;100.00
1616;BME280;801;47.982;7.810;2023-02-10T09:08:20;100787.81;;;1.01;100.00
1616;BME280;801;47.982;7.810;2023-02-10T09:10:47;100796.66;;;1.20;100.00
1616;BME280;801;47.982;7.810;2023-02-10T09:13:14;100795.25;;;1.26;100.00
1616;BME280;801;47.982;7.810;2023-02-10T09:15:41;100792.09;;;0.65;100.00
1616;BME280;801;47.982;7.810;2023-02-10T09:18:09;100793.31;;;0.71;100.00
1616;BME280;801;47.982;7.810;2023-02-10T09:20:37;100794.28;;;0.79;100.00
1616;BME280;801;47.982;7.810;2023-02-10T09:23:04;100790.78;;;0.89;100.00
1616;BME280;801;47.982;7.810;2023-02-10T09:25:30;100790.94;;;0.77;100.00
1616;BME280;801;47.982;7.810;2023-02-10T09:27:57;100790.69;;;0.51;100.00
1616;BME280;801;47.982;7.810;2023-02-10T09:30:24;100790.66;;;0.80;100.00
1616;BME280;801;47.982;7.810;2023-02-10T09:32:50;100787.69;;;1.03;100.00
1616;BME280;801;47.982;7.810;2023-02-10T09:35:17;100789.25;;;0.86;100.00
1616;BME280;801;47.982;7.810;2023-02-10T09:37:45;100793.44;;;0.69;100.00
1616;BME280;801;47.982;7.810;2023-02-10T09:40:16;100790.41;;;1.21;100.00
1616;BME280;801;47.982;7.810;2023-02-10T09:42:58;100797.16;;;1.33;100.00
1616;BME280;801;47.982;7.810;2023-02-10T09:45:31;100785.66;;;0.77;100.00
1616;BME280;801;47.982;7.810;2023-02-10T09:48:03;100794.13;;;1.28;100.00
1616;BME280;801;47.982;7.810;2023-02-10T09:50:45;100793.53;;;1.62;100.00
1616;BME280;801;47.982;7.810;2023-02-10T09:53:17;100790.69;;;1.73;100.00
1616;BME280;801;47.982;7.810;2023-02-10T09:55:48;100783.44;;;1.48;100.00
1616;BME280;801;47.982;7.810;2023-02-10T09:58:22;100779.31;;;1.35;100.00
1616;BME280;801;47.982;7.810;2023-02-10T10:00:54;100788.78;;;1.38;100.00
1616;BME280;801;47.982;7.810;2023-02-10T10:03:26;100787.47;;;2.15;100.00
1616;BME280;801;47.982;7.810;2023-02-10T10:06:00;100791.16;;;2.22;100.00
1616;BME280;801;47.982;7.810;2023-02-10T10:08:39;100788.97;;;2.36;100.00
1616;BME280;801;47.982;7.810;2023-02-10T10:11:19;100792.28;;;2.56;100.00
1616;BME280;801;47.982;7.810;2023-02-10T10:13:48;100788.88;;;2.45;100.00
1616;BME280;801;47.982;7.810;2023-02-10T10:16:21;100788.88;;;2.45;100.00
1616;BME280;801;47.982;7.810;2023-02-10T10:19:01;100792.44;;;2.80;100.00
1616;BME280;801;47.982;7.810;2023-02-10T10:21:36;100794.34;;;2.70;100.00
1616;BME280;801;47.982;7.810;2023-02-10T10:24:16;100795.13;;;3.06;100.00
1616;BME280;801;47.982;7.810;2023-02-10T10:26:52;100800.91;;;3.02;100.00
1616;BME280;801;47.982;7.810;2023-02-10T10:29:28;100791.50;;;3.16;100.00
1616;BME280;801;47.982;7.810;2023-02-10T10:32:04;100798.31;;;3.18;100.00
1616;BME280;801;47.982;7.810;2023-02-10T10:34:39;100801.59;;;3.38;100.00
1616;BME280;801;47.982;7.810;2023-02-10T10:37:12;100798.72;;;3.74;100.00
1616;BME280;801;47.982;7.810;2023-02-10T10:39:43;100795.41;;;3.80;100.00
1616;BME280;801;47.982;7.810;2023-02-10T10:42:19;100793.44;;;3.40;100.00
1616;BME280;801;47.982;7.810;2023-02-10T10:44:48;100787.78;;;4.02;100.00
1616;BME280;801;47.982;7.810;2023-02-10T10:47:18;100797.47;;;4.03;100.00
1616;BME280;801;47.982;7.810;2023-02-10T10:49:47;100802.78;;;4.19;100.00
1616;BME280;801;47.982;7.810;2023-02-10T10:52:25;100795.19;;;4.24;100.00
1616;BME280;801;47.982;7.810;2023-02-10T10:54:55;100792.84;;;4.29;100.00
1616;BME280;801;47.982;7.810;2023-02-10T10:57:22;100785.97;;;4.84;100.00
1616;BME280;801;47.982;7.810;2023-02-10T10:59:54;100790.31;;;4.85;100.00
1616;BME280;801;47.982;7.810;2023-02-10T11:02:22;100784.81;;;4.78;100.00
1616;BME280;801;47.982;7.810;2023-02-10T11:05:00;100782.13;;;5.03;100.00
1616;BME280;801;47.982;7.810;2023-02-10T11:07:28;100773.69;;;5.31;99.54
1616;BME280;801;47.982;7.810;2023-02-10T11:09:58;100779.41;;;5.59;97.79
1616;BME280;801;47.982;7.810;2023-02-10T11:12:28;100780.25;;;5.51;96.37
1616;BME280;801;47.982;7.810;2023-02-10T11:14:56;100779.41;;;5.90;94.30
1616;BME280;801;47.982;7.810;2023-02-10T11:17:24;100771.97;;;5.77;94.33
1616;BME280;801;47.982;7.810;2023-02-10T11:19:58;100770.06;;;5.63;94.98
1616;BME280;801;47.982;7.810;2023-02-10T11:22:25;100773.72;;;5.93;92.83
1616;BME280;801;47.982;7.810;2023-02-10T11:24:53;100773.47;;;6.34;92.46
1616;BME280;801;47.982;7.810;2023-02-10T11:27:22;100767.94;;;5.50;94.76
1616;BME280;801;47.982;7.810;2023-02-10T11:29:51;100761.72;;;6.58;91.33
1616;BME280;801;47.982;7.810;2023-02-10T11:32:19;100773.09;;;6.75;86.78
1616;BME280;801;47.982;7.810;2023-02-10T11:34:47;100754.50;;;6.97;84.42
1616;BME280;801;47.982;7.810;2023-02-10T11:37:21;100763.06;;;7.07;82.88
1616;BME280;801;47.982;7.810;2023-02-10T11:39:49;100756.22;;;6.90;81.11
1616;BME280;801;47.982;7.810;2023-02-10T11:42:18;100761.31;;;7.80;81.19
1616;BME280;801;47.982;7.810;2023-02-10T11:44:59;100763.59;;;8.41;75.16
1616;BME280;801;47.982;7.810;2023-02-10T11:47:29;100757.59;;;7.81;73.78
1616;BME280;801;47.982;7.810;2023-02-10T11:49:57;100760.63;;;7.93;74.97
1616;BME280;801;47.982;7.810;2023-02-10T11:52:25;100765.25;;;6.59;79.74
1616;BME280;801;47.982;7.810;2023-02-10T11:54:53;100761.94;;;6.34;81.83
1616;BME280;801;47.982;7.810;2023-02-10T11:57:36;100767.28;;;7.97;76.52
1616;BME280;801;47.982;7.810;2023-02-10T12:00:31;100759.03;;;8.91;71.55
1616;BME280;801;47.982;7.810;2023-02-10T12:03:23;100756.66;;;9.10;64.91
1616;BME280;801;47.982;7.810;2023-02-10T12:05:58;100760.00;;;8.13;68.75
1616;BME280;801;47.982;7.810;2023-02-10T12:08:40;100753.69;;;7.77;71.90
1616;BME280;801;47.982;7.810;2023-02-10T12:11:14;100756.44;;;8.05;70.56
1616;BME280;801;47.982;7.810;2023-02-10T12:13:54;100747.72;;;8.68;68.28
1616;BME280;801;47.982;7.810;2023-02-10T12:16:35;100747.63;;;8.55;70.54
1616;BME280;801;47.982;7.810;2023-02-10T12:19:20;100748.91;;;8.87;64.51
1616;BME280;801;47.982;7.810;2023-02-10T12:22:10;100745.53;;;9.61;62.84
1616;BME280;801;47.982;7.810;2023-02-10T12:25:07;100748.47;;;7.90;69.27
1616;BME280;801;47.982;7.810;2023-02-10T12:27:55;100745.41;;;8.86;65.63
1616;BME280;801;47.982;7.810;2023-02-10T12:30:34;100740.53;;;8.75;66.77
1616;BME280;801;47.982;7.810;2023-02-10T12:33:35;100733.84;;;8.92;64.70
1616;BME280;801;47.982;7.810;2023-02-10T12:36:11;100738.03;;;9.02;64.19
1616;BME280;801;47.982;7.810;2023-02-10T12:39:01;100735.06;;;9.80;63.86
1616;BME280;801;47.982;7.810;2023-02-10T12:41:49;100736.47;;;9.75;61.76
1616;BME280;801;47.982;7.810;2023-02-10T12:44:29;100740.31;;;10.28;57.73
1616;BME280;801;47.982;7.810;2023-02-10T12:47:13;100731.81;;;8.94;61.69
1616;BME280;801;47.982;7.810;2023-02-10T12:50:02;100724.16;;;9.33;58.95
1616;BME280;801;47.982;7.810;2023-02-10T12:52:38;100727.66;;;9.88;61.55
1616;BME280;801;47.982;7.810;2023-02-10T12:55:18;100725.22;;;10.27;59.32
1616;BME280;801;47.982;7.810;2023-02-10T12:57:48;100722.91;;;10.90;56.73
1616;BME280;801;47.982;7.810;2023-02-10T13:00:21;100725.19;;;9.87;58.97
1616;BME280;801;47.982;7.810;2023-02-10T13:02:53;100713.28;;;10.29;56.65
1616;BME280;801;47.982;7.810;2023-02-10T13:05:28;100716.16;;;10.41;57.29
1616;BME280;801;47.982;7.810;2023-02-10T13:07:59;100719.66;;;10.68;55.18
1616;BME280;801;47.982;7.810;2023-02-10T13:10:35;100712.38;;;10.82;55.03
1616;BME280;801;47.982;7.810;2023-02-10T13:13:05;100708.28;;;10.39;56.13
1616;BME280;801;47.982;7.810;2023-02-10T13:15:41;100707.03;;;10.55;55.58
1616;BME280;801;47.982;7.810;2023-02-10T13:18:18;100705.41;;;11.26;54.56
1616;BME280;801;47.982;7.810;2023-02-10T13:20:58;100705.63;;;11.70;52.85
1616;BME280;801;47.982;7.810;2023-02-10T13:23:31;100703.66;;;11.45;53.00
1616;BME280;801;47.982;7.810;2023-02-10T13:26:13;100699.16;;;10.07;53.07
1616;BME280;801;47.982;7.810;2023-02-10T13:28:58;100697.97;;;10.50;57.15
1616;BME280;801;47.982;7.810;2023-02-10T13:31:46;100702.16;;;12.26;51.68
1616;BME280;801;47.982;7.810;2023-02-10T13:34:22;100701.78;;;12.22;50.72
1616;BME280;801;47.982;7.810;2023-02-10T13:36:55;100697.47;;;9.80;55.11